Terminal Aerodrome Forecast
Issued by NWS Corpus Christi, TX

Current Version | Previous Version | Text Only | Print | Product List | Glossary Off
Versions: 1 2 3 4 5 6 7 8 9 10 11 12 13 14 15

000
FTUS44 KCRP 221100
TAFCRP
TAF
KCRP 221121Z 2212/2312 02005KT P6SM BKN250
     FM221500 07012KT P6SM SCT030 BKN150
     FM221900 09014G20KT P6SM SCT035
     FM230300 09008KT P6SM SCT025=

USA.gov is the U.S. government's official web portal to all federal, state and local government web resources and services.